createdAt,value
2023-04-06T00:02:17.156Z,41.07
2023-04-06T00:04:43.652Z,46.53
2023-04-06T00:07:10.208Z,43.73
2023-04-06T00:09:36.734Z,43.03
2023-04-06T00:12:03.337Z,41.33
2023-04-06T00:14:29.794Z,39.10
2023-04-06T00:16:56.817Z,45.63
2023-04-06T00:19:23.439Z,46.40
2023-04-06T00:21:50.095Z,40.73
2023-04-06T00:24:16.800Z,44.37
2023-04-06T00:26:43.332Z,42.80
2023-04-06T00:29:10.088Z,44.57
2023-04-06T00:31:36.781Z,46.43
2023-04-06T00:34:03.303Z,49.07
2023-04-06T00:36:30.041Z,47.67
2023-04-06T00:38:56.653Z,49.90
2023-04-06T00:41:23.224Z,48.60
2023-04-06T00:43:49.728Z,46.87
2023-04-06T00:46:16.374Z,47.00
2023-04-06T00:48:43.009Z,51.90
2023-04-06T00:51:09.673Z,49.73
2023-04-06T00:53:36.320Z,47.63
2023-04-06T00:56:02.865Z,56.63
2023-04-06T00:58:29.462Z,46.10
2023-04-06T01:00:56.627Z,48.30
2023-04-06T01:03:23.596Z,47.90
2023-04-06T01:05:50.255Z,44.73
2023-04-06T01:08:16.853Z,48.07
2023-04-06T01:10:43.322Z,47.93
2023-04-06T01:13:09.816Z,51.13
2023-04-06T01:15:36.656Z,49.10
2023-04-06T01:18:03.583Z,49.97
2023-04-06T01:20:31.578Z,48.00
2023-04-06T01:22:58.615Z,44.87
2023-04-06T01:25:25.079Z,47.13
2023-04-06T01:27:51.628Z,53.60
2023-04-06T01:30:18.445Z,45.43
2023-04-06T01:32:45.088Z,43.10
2023-04-06T01:35:11.871Z,49.47
2023-04-06T01:37:38.388Z,46.50
2023-04-06T01:40:05.263Z,48.90
2023-04-06T01:42:31.764Z,48.97
2023-04-06T01:44:58.260Z,48.77
2023-04-06T01:47:24.759Z,50.63
2023-04-06T01:49:51.564Z,49.30
2023-04-06T01:52:18.070Z,50.33
2023-04-06T01:54:44.614Z,51.53
2023-04-06T01:57:11.451Z,51.27
2023-04-06T01:59:38.093Z,48.47
2023-04-06T02:02:04.725Z,47.80
2023-04-06T02:04:31.442Z,48.03
2023-04-06T02:06:58.052Z,52.80
2023-04-06T02:09:24.569Z,45.67
2023-04-06T02:11:51.282Z,59.47
2023-04-06T02:14:17.839Z,49.93
2023-04-06T02:16:45.617Z,42.77
2023-04-06T02:19:12.477Z,42.90
2023-04-06T02:21:39.082Z,44.70
2023-04-06T02:24:05.923Z,42.10
2023-04-06T02:26:32.436Z,50.83
2023-04-06T02:28:59.005Z,45.63
2023-04-06T02:31:25.503Z,41.23
2023-04-06T02:33:52.003Z,43.57
2023-04-06T02:36:18.504Z,47.60
2023-04-06T02:38:45.066Z,47.50
2023-04-06T02:41:11.543Z,43.83
2023-04-06T02:43:38.018Z,43.60
2023-04-06T02:46:04.717Z,39.27
2023-04-06T02:48:31.252Z,48.33
2023-04-06T02:50:57.813Z,44.97
2023-04-06T02:53:24.390Z,48.03
2023-04-06T02:55:50.935Z,40.37
2023-04-06T02:58:17.384Z,43.30
2023-04-06T03:00:43.901Z,47.17
2023-04-06T03:03:10.604Z,44.03
2023-04-06T03:05:37.318Z,39.93
2023-04-06T03:08:03.833Z,41.73
2023-04-06T03:10:30.357Z,46.40
2023-04-06T03:12:56.851Z,46.60
2023-04-06T03:15:23.370Z,44.40
2023-04-06T03:17:49.906Z,42.17
2023-04-06T03:20:16.469Z,42.53
2023-04-06T03:22:42.975Z,41.60
2023-04-06T03:25:09.623Z,41.73
2023-04-06T03:27:36.181Z,47.10
2023-04-06T03:30:03.028Z,41.80
2023-04-06T03:32:29.533Z,42.27
2023-04-06T03:34:56.074Z,44.93
2023-04-06T03:37:22.712Z,44.67
2023-04-06T03:39:49.278Z,48.60
2023-04-06T03:42:15.808Z,40.93
2023-04-06T03:44:42.352Z,41.93
2023-04-06T03:47:08.958Z,43.47
2023-04-06T03:49:35.772Z,36.97
2023-04-06T03:52:02.657Z,38.33
2023-04-06T03:54:29.174Z,42.70
2023-04-06T03:56:56.206Z,38.23
2023-04-06T03:59:22.937Z,44.40
2023-04-06T04:01:49.671Z,41.73
2023-04-06T04:04:16.478Z,40.33
2023-04-06T04:06:43.041Z,35.27
2023-04-06T04:09:09.713Z,41.03
2023-04-06T04:11:36.448Z,43.90
2023-04-06T04:14:02.974Z,42.93
2023-04-06T04:16:29.516Z,43.83
2023-04-06T04:18:56.100Z,39.60
2023-04-06T04:21:22.618Z,36.23
2023-04-06T04:23:49.244Z,35.60
2023-04-06T04:26:15.847Z,37.20
2023-04-06T04:28:42.344Z,42.57
2023-04-06T04:31:09.077Z,46.93
2023-04-06T04:33:35.842Z,37.50
2023-04-06T04:36:02.360Z,48.90
2023-04-06T04:40:00.353Z,57.73
2023-04-06T04:42:26.876Z,66.43
2023-04-06T04:44:53.382Z,56.73
2023-04-06T04:47:19.913Z,57.53
2023-04-06T04:49:46.356Z,56.10
2023-04-06T04:52:13.129Z,60.33
2023-04-06T04:54:42.072Z,64.57
2023-04-06T04:57:08.597Z,60.77
2023-04-06T04:59:35.910Z,76.43
2023-04-06T05:02:03.070Z,72.47
2023-04-06T05:04:29.634Z,83.37
2023-04-06T05:07:09.329Z,88.53
2023-04-06T05:09:36.019Z,85.37
2023-04-06T05:12:02.708Z,79.77
2023-04-06T05:14:29.251Z,83.17
2023-04-06T05:16:56.119Z,125.90
2023-04-06T05:19:22.659Z,126.00
2023-04-06T05:21:49.178Z,97.03
2023-04-06T05:24:15.834Z,79.80
2023-04-06T05:26:42.894Z,75.97
2023-04-06T05:29:09.708Z,76.33
2023-04-06T05:31:42.662Z,83.83
2023-04-06T05:34:14.992Z,79.07
2023-04-06T05:36:42.242Z,83.90
2023-04-06T05:39:10.131Z,77.97
2023-04-06T05:41:37.762Z,72.87
2023-04-06T05:44:07.335Z,74.33
2023-04-06T05:46:33.919Z,83.03
2023-04-06T05:49:00.748Z,71.37
2023-04-06T05:51:28.636Z,71.60
2023-04-06T05:53:55.136Z,77.57
2023-04-06T05:56:22.443Z,89.77
2023-04-06T05:58:51.481Z,79.30
2023-04-06T06:01:21.646Z,82.13
2023-04-06T06:03:53.808Z,82.93
2023-04-06T06:06:25.402Z,79.67
2023-04-06T06:08:58.104Z,64.27
2023-04-06T06:11:24.991Z,63.73
2023-04-06T06:13:51.508Z,58.13
2023-04-06T06:16:18.388Z,55.73
2023-04-06T06:18:45.245Z,42.30
2023-04-06T06:21:15.819Z,43.53
2023-04-06T06:23:43.198Z,44.93
2023-04-06T06:26:10.101Z,35.27
2023-04-06T06:28:37.345Z,38.30
2023-04-06T06:31:03.939Z,28.70
2023-04-06T06:33:30.771Z,23.20
2023-04-06T06:35:57.484Z,20.57
2023-04-06T06:38:24.167Z,19.60
2023-04-06T06:40:50.733Z,23.70
2023-04-06T06:43:17.317Z,19.93
2023-04-06T06:45:43.983Z,19.17
2023-04-06T06:48:10.570Z,16.77
2023-04-06T06:50:37.174Z,14.40
2023-04-06T06:53:03.750Z,19.53
2023-04-06T06:55:30.345Z,15.03
2023-04-06T06:57:57.024Z,15.00
2023-04-06T07:00:23.894Z,17.60
2023-04-06T07:02:50.650Z,11.50
2023-04-06T07:05:28.068Z,14.90
2023-04-06T07:07:56.761Z,14.07
2023-04-06T07:10:23.567Z,13.13
2023-04-06T07:12:50.134Z,16.53
2023-04-06T07:15:17.619Z,12.33
2023-04-06T07:17:46.328Z,12.33
2023-04-06T07:20:24.038Z,12.47
2023-04-06T07:26:00.000Z,10.77
2023-04-06T07:28:26.605Z,13.57
2023-04-06T07:30:53.917Z,10.17
2023-04-06T07:33:20.812Z,17.83
2023-04-06T07:36:02.534Z,14.80
2023-04-06T07:38:29.099Z,14.40
2023-04-06T07:40:55.712Z,18.97
2023-04-06T07:43:38.106Z,18.17
2023-04-06T07:46:25.949Z,20.47
2023-04-06T07:48:52.945Z,19.90
2023-04-06T07:51:28.805Z,16.53
2023-04-06T07:54:00.177Z,15.00
2023-04-06T07:56:26.881Z,13.47
2023-04-06T07:58:56.975Z,11.90
2023-04-06T08:01:23.801Z,10.63
2023-04-06T08:03:51.642Z,15.20
2023-04-06T08:06:18.771Z,14.30
2023-04-06T08:08:45.667Z,13.90
2023-04-06T08:11:12.294Z,10.97
2023-04-06T08:13:38.892Z,10.13
2023-04-06T08:16:05.803Z,12.57
2023-04-06T08:18:32.361Z,11.20
2023-04-06T08:20:58.897Z,10.80
2023-04-06T08:23:25.659Z,14.30
2023-04-06T08:25:55.232Z,9.53
2023-04-06T08:28:23.191Z,11.53
2023-04-06T08:30:49.754Z,10.03
2023-04-06T08:33:16.809Z,12.73
2023-04-06T08:35:43.391Z,9.90
2023-04-06T08:38:10.064Z,12.63
2023-04-06T08:40:40.055Z,12.33
2023-04-06T08:43:10.989Z,9.60
2023-04-06T08:45:37.559Z,10.27
2023-04-06T08:48:04.230Z,12.33
2023-04-06T08:50:31.036Z,11.13
2023-04-06T08:52:58.674Z,10.47
2023-04-06T08:55:25.213Z,12.53
2023-04-06T08:57:54.584Z,12.33
2023-04-06T09:00:21.391Z,15.03
2023-04-06T09:02:49.055Z,15.43
2023-04-06T09:05:15.965Z,11.00
2023-04-06T09:07:42.579Z,12.67
2023-04-06T09:10:09.351Z,14.63
2023-04-06T09:12:36.074Z,15.40
2023-04-06T09:15:02.848Z,15.90
2023-04-06T09:17:30.105Z,12.67
2023-04-06T09:19:57.050Z,13.40
2023-04-06T09:22:23.800Z,19.73
2023-04-06T09:24:53.945Z,18.30
2023-04-06T09:27:36.675Z,15.60
2023-04-06T09:30:06.979Z,17.27
2023-04-06T09:32:33.587Z,18.63
2023-04-06T09:35:06.928Z,18.07
2023-04-06T09:37:33.524Z,20.13
2023-04-06T09:40:03.849Z,16.47
2023-04-06T09:42:30.438Z,15.43
2023-04-06T09:44:56.959Z,17.97
2023-04-06T09:47:26.404Z,16.83
2023-04-06T09:49:56.792Z,18.17
2023-04-06T09:52:23.297Z,19.20
2023-04-06T09:54:50.897Z,13.33
2023-04-06T09:57:20.634Z,15.77
2023-04-06T09:59:56.669Z,14.13
2023-04-06T10:02:33.345Z,13.90
2023-04-06T10:05:04.034Z,15.80
2023-04-06T10:07:30.739Z,15.67
2023-04-06T10:09:57.337Z,15.17
2023-04-06T10:12:23.910Z,14.83
2023-04-06T10:14:50.481Z,13.97
2023-04-06T10:17:17.013Z,14.37
2023-04-06T10:19:54.274Z,14.50
2023-04-06T10:22:44.047Z,13.00
2023-04-06T10:25:10.620Z,13.80
2023-04-06T10:27:37.148Z,14.60
2023-04-06T10:30:04.477Z,13.03
2023-04-06T10:32:37.754Z,14.50
2023-04-06T10:35:08.020Z,13.37
2023-04-06T10:37:47.546Z,16.63
2023-04-06T10:40:26.661Z,15.67
2023-04-06T10:42:54.091Z,15.53
2023-04-06T10:45:32.252Z,11.93
2023-04-06T10:47:58.914Z,12.87
2023-04-06T10:50:26.102Z,11.83
2023-04-06T10:53:02.287Z,13.37
2023-04-06T10:55:29.124Z,14.63
2023-04-06T10:57:55.898Z,11.77
2023-04-06T11:00:22.543Z,11.20
2023-04-06T11:02:49.650Z,14.60
2023-04-06T11:05:16.248Z,10.73
2023-04-06T11:07:42.802Z,11.97
2023-04-06T11:12:38.990Z,14.80
2023-04-06T11:15:06.925Z,13.20
2023-04-06T11:17:34.304Z,10.93
2023-04-06T11:20:01.013Z,10.53
2023-04-06T11:22:27.646Z,9.07
2023-04-06T11:24:54.350Z,11.27
2023-04-06T11:27:21.808Z,11.97
2023-04-06T11:29:48.376Z,10.13
2023-04-06T11:32:21.936Z,8.33
2023-04-06T11:34:48.614Z,9.17
2023-04-06T11:37:15.485Z,9.80
2023-04-06T11:39:44.048Z,8.70
2023-04-06T11:42:10.956Z,8.87
2023-04-06T11:44:37.494Z,9.60
2023-04-06T11:47:04.344Z,11.23
2023-04-06T11:49:31.643Z,8.70
2023-04-06T11:51:58.552Z,10.03
2023-04-06T11:54:32.181Z,12.07
2023-04-06T11:56:58.723Z,10.03
2023-04-06T11:59:25.296Z,8.77
2023-04-06T12:01:53.290Z,8.07
2023-04-06T12:04:20.023Z,7.63
2023-04-06T12:06:46.733Z,9.07
2023-04-06T12:09:13.361Z,11.33
2023-04-06T12:11:39.898Z,11.50
2023-04-06T12:14:06.399Z,8.37
2023-04-06T12:16:33.027Z,12.73
2023-04-06T12:18:59.804Z,8.37
2023-04-06T12:21:26.492Z,8.03
2023-04-06T12:23:52.981Z,8.73
2023-04-06T12:26:19.462Z,9.33
2023-04-06T12:28:46.027Z,10.47
2023-04-06T12:31:16.519Z,6.13
2023-04-06T12:33:43.272Z,6.03
2023-04-06T12:36:13.954Z,15.03
2023-04-06T12:38:42.212Z,13.87
2023-04-06T12:41:08.921Z,8.03
2023-04-06T12:43:35.674Z,10.53
2023-04-06T12:46:02.197Z,11.33
2023-04-06T12:48:28.672Z,11.07
2023-04-06T12:51:02.120Z,12.80
2023-04-06T12:53:28.661Z,10.67
2023-04-06T12:55:55.419Z,6.10
2023-04-06T12:58:22.566Z,9.73
2023-04-06T13:00:49.373Z,9.87
2023-04-06T13:03:15.971Z,8.63
2023-04-06T13:05:46.369Z,12.83
2023-04-06T13:08:13.198Z,12.03
2023-04-06T13:10:40.141Z,7.33
2023-04-06T13:13:06.757Z,13.70
2023-04-06T13:15:33.911Z,12.97
2023-04-06T13:18:00.824Z,9.47
2023-04-06T13:20:27.349Z,11.83
2023-04-06T13:22:53.883Z,12.23
2023-04-06T13:25:20.552Z,12.10
2023-04-06T13:27:48.696Z,13.30
2023-04-06T13:30:16.478Z,12.73
2023-04-06T13:32:44.436Z,9.03
2023-04-06T13:35:11.144Z,16.07
2023-04-06T13:37:37.674Z,13.07
2023-04-06T13:40:05.771Z,18.90
2023-04-06T13:42:32.593Z,16.03
2023-04-06T13:44:59.338Z,20.37
2023-04-06T13:47:25.907Z,13.87
2023-04-06T13:49:56.294Z,14.53
2023-04-06T13:52:22.908Z,13.83
2023-04-06T13:54:49.836Z,14.07
2023-04-06T13:57:16.336Z,15.27
2023-04-06T13:59:45.815Z,20.47
2023-04-06T14:02:12.532Z,19.47
2023-04-06T14:04:39.183Z,18.33
2023-04-06T14:07:08.384Z,13.03
2023-04-06T14:09:34.913Z,18.17
2023-04-06T14:12:01.448Z,21.27
2023-04-06T14:14:28.007Z,21.57
2023-04-06T14:16:55.588Z,19.17
2023-04-06T14:19:22.729Z,17.97
2023-04-06T14:21:49.746Z,24.60
2023-04-06T14:24:17.091Z,21.53
2023-04-06T14:26:43.868Z,24.60
2023-04-06T14:29:10.820Z,24.97
2023-04-06T14:31:37.370Z,18.33
2023-04-06T14:34:04.224Z,22.00
2023-04-06T14:36:39.795Z,26.83
2023-04-06T14:39:06.893Z,20.87
2023-04-06T14:41:33.516Z,17.77
2023-04-06T14:44:00.290Z,15.77
2023-04-06T14:46:27.849Z,18.83
2023-04-06T14:49:00.480Z,16.60
2023-04-06T14:51:30.028Z,12.87
2023-04-06T14:53:56.544Z,15.83
2023-04-06T14:56:26.234Z,13.63
2023-04-06T14:58:52.862Z,16.20
2023-04-06T15:01:19.740Z,14.33
2023-04-06T15:03:46.560Z,19.67
2023-04-06T15:06:15.939Z,22.40
2023-04-06T15:08:45.641Z,22.07
2023-04-06T15:11:12.537Z,16.20
2023-04-06T15:13:39.332Z,16.40
2023-04-06T15:16:06.239Z,15.30
2023-04-06T15:18:32.878Z,17.30
2023-04-06T15:20:59.371Z,18.60
2023-04-06T15:23:26.069Z,19.33
2023-04-06T15:25:52.775Z,16.20
2023-04-06T15:28:19.372Z,17.83
2023-04-06T15:30:46.041Z,16.20
2023-04-06T15:33:12.775Z,15.30
2023-04-06T15:35:43.694Z,15.67
2023-04-06T15:38:10.833Z,20.03
2023-04-06T15:40:43.356Z,18.47
2023-04-06T15:43:09.832Z,16.60
2023-04-06T15:45:36.319Z,18.80
2023-04-06T15:48:03.298Z,19.17
2023-04-06T15:50:31.507Z,17.83
2023-04-06T15:52:58.005Z,18.33
2023-04-06T15:55:24.614Z,21.83
2023-04-06T15:57:51.770Z,15.90
2023-04-06T16:00:18.967Z,19.97
2023-04-06T16:02:45.722Z,15.50
2023-04-06T16:05:12.333Z,19.37
2023-04-06T16:07:38.839Z,15.33
2023-04-06T16:10:06.333Z,15.30
2023-04-06T16:12:34.064Z,14.40
2023-04-06T16:15:01.400Z,16.33
2023-04-06T16:17:27.938Z,21.73
2023-04-06T16:19:54.459Z,23.63
2023-04-06T16:22:21.358Z,23.80
2023-04-06T16:24:47.947Z,25.27
2023-04-06T16:27:14.442Z,30.70
2023-04-06T16:29:40.956Z,33.23
2023-04-06T16:32:07.789Z,28.03
2023-04-06T16:34:34.443Z,27.37
2023-04-06T16:37:01.804Z,20.47
2023-04-06T16:39:28.809Z,18.03
2023-04-06T16:41:56.364Z,17.97
2023-04-06T16:44:22.985Z,18.13
2023-04-06T16:46:49.791Z,21.53
2023-04-06T16:49:19.442Z,18.67
2023-04-06T16:51:46.084Z,23.83
2023-04-06T16:54:12.575Z,20.47
2023-04-06T16:56:39.102Z,20.63
2023-04-06T16:59:06.967Z,22.73
2023-04-06T17:01:33.608Z,23.37
2023-04-06T17:04:00.885Z,21.10
2023-04-06T17:06:29.175Z,21.80
2023-04-06T17:08:56.951Z,23.97
2023-04-06T17:11:28.497Z,24.17
2023-04-06T17:13:59.381Z,25.73
2023-04-06T17:16:28.480Z,23.00
2023-04-06T17:18:56.170Z,26.47
2023-04-06T17:21:22.776Z,23.60
2023-04-06T17:23:49.529Z,25.73
2023-04-06T17:26:16.439Z,28.87
2023-04-06T17:28:42.978Z,27.30
2023-04-06T17:31:12.636Z,29.77
2023-04-06T17:33:39.376Z,32.90
2023-04-06T17:36:06.553Z,31.63
2023-04-06T17:38:33.209Z,35.57
2023-04-06T17:41:00.058Z,37.60
2023-04-06T17:43:26.979Z,30.73
2023-04-06T17:45:53.596Z,27.63
2023-04-06T17:48:20.210Z,26.97
2023-04-06T17:50:47.097Z,26.53
2023-04-06T17:53:13.770Z,26.53
2023-04-06T17:55:42.547Z,28.93
2023-04-06T17:58:09.232Z,29.43
2023-04-06T18:00:36.394Z,28.00
2023-04-06T18:03:02.901Z,28.97
2023-04-06T18:05:29.578Z,36.63
2023-04-06T18:07:56.588Z,42.03
2023-04-06T18:10:23.443Z,40.37
2023-04-06T18:12:50.424Z,35.20
2023-04-06T18:15:17.268Z,34.43
2023-04-06T18:17:44.798Z,34.53
2023-04-06T18:20:13.308Z,34.37
2023-04-06T18:22:42.195Z,33.10
2023-04-06T18:25:08.758Z,31.47
2023-04-06T18:27:35.608Z,36.07
2023-04-06T18:30:02.382Z,38.17
2023-04-06T18:32:30.613Z,36.00
2023-04-06T18:34:58.245Z,43.57
2023-04-06T18:37:25.583Z,41.20
2023-04-06T18:39:53.497Z,47.40
2023-04-06T18:42:20.167Z,40.60
2023-04-06T18:44:46.810Z,41.00
2023-04-06T18:47:13.404Z,42.90
2023-04-06T18:49:40.219Z,46.37
2023-04-06T18:52:06.937Z,40.57
2023-04-06T18:54:33.459Z,40.87
2023-04-06T18:57:00.099Z,36.77
2023-04-06T18:59:30.493Z,35.63
2023-04-06T19:01:57.292Z,30.50
2023-04-06T19:04:24.008Z,35.10
2023-04-06T19:06:50.939Z,34.93
2023-04-06T19:09:17.611Z,32.77
2023-04-06T19:11:44.261Z,30.30
2023-04-06T19:14:10.947Z,27.00
2023-04-06T19:16:41.286Z,30.23
2023-04-06T19:19:07.913Z,29.13
2023-04-06T19:21:34.406Z,29.73
2023-04-06T19:24:01.534Z,27.20
2023-04-06T19:26:29.517Z,27.97
2023-04-06T19:28:56.245Z,28.83
2023-04-06T19:31:22.752Z,27.97
2023-04-06T19:33:49.286Z,31.77
2023-04-06T19:36:16.246Z,26.60
2023-04-06T19:38:42.980Z,31.40
2023-04-06T19:41:09.689Z,27.73
2023-04-06T19:43:36.245Z,27.00
2023-04-06T19:46:03.319Z,27.20
2023-04-06T19:48:30.287Z,29.37
2023-04-06T19:50:56.776Z,28.17
2023-04-06T19:53:23.423Z,30.77
2023-04-06T19:55:50.190Z,30.03
2023-04-06T19:58:16.829Z,29.63
2023-04-06T20:00:43.309Z,31.50
2023-04-06T20:03:10.085Z,27.77
2023-04-06T20:05:36.764Z,29.90
2023-04-06T20:08:03.493Z,34.37
2023-04-06T20:10:30.058Z,36.03
2023-04-06T20:12:56.668Z,37.80
2023-04-06T20:15:23.398Z,38.83
2023-04-06T20:17:50.156Z,41.40
2023-04-06T20:20:16.727Z,43.97
2023-04-06T20:22:43.357Z,45.60
2023-04-06T20:25:11.472Z,49.60
2023-04-06T20:27:38.095Z,48.57
2023-04-06T20:30:04.984Z,47.73
2023-04-06T20:32:31.765Z,46.93
2023-04-06T20:34:59.088Z,45.83
2023-04-06T20:37:25.681Z,46.50
2023-04-06T20:39:52.268Z,40.83
2023-04-06T20:42:19.032Z,41.10
2023-04-06T20:44:46.830Z,41.30
2023-04-06T20:47:13.354Z,39.20
2023-04-06T20:49:39.836Z,38.90
2023-04-06T20:52:06.356Z,33.57
2023-04-06T20:54:32.842Z,41.30
2023-04-06T20:57:00.565Z,38.83
2023-04-06T20:59:27.542Z,42.57
2023-04-06T21:01:54.459Z,42.37
2023-04-06T21:04:23.002Z,38.00
2023-04-06T21:06:49.895Z,38.50
2023-04-06T21:09:16.673Z,38.27
2023-04-06T21:11:43.183Z,40.13
2023-04-06T21:14:10.592Z,42.97
2023-04-06T21:16:37.717Z,46.73
2023-04-06T21:19:04.361Z,40.17
2023-04-06T21:21:30.886Z,39.80
2023-04-06T21:23:58.788Z,41.27
2023-04-06T21:26:25.325Z,36.00
2023-04-06T21:28:51.870Z,40.83
2023-04-06T21:31:20.137Z,43.73
2023-04-06T21:33:47.122Z,47.47
2023-04-06T21:36:13.744Z,43.63
2023-04-06T21:38:40.288Z,40.43
2023-04-06T21:41:07.384Z,39.30
2023-04-06T21:43:34.057Z,43.17
2023-04-06T21:46:00.565Z,41.27
2023-04-06T21:48:27.280Z,42.03
2023-04-06T21:50:53.835Z,55.00
2023-04-06T21:53:20.406Z,51.63
2023-04-06T21:55:47.036Z,52.07
2023-04-06T21:58:13.642Z,40.60
2023-04-06T22:00:40.315Z,42.90
2023-04-06T22:03:06.981Z,44.97
2023-04-06T22:05:33.795Z,44.27
2023-04-06T22:08:03.323Z,48.73
2023-04-06T22:10:29.897Z,43.80
2023-04-06T22:12:56.454Z,41.77
2023-04-06T22:15:22.963Z,40.97
2023-04-06T22:17:49.475Z,47.10
2023-04-06T22:20:16.059Z,44.60
2023-04-06T22:22:42.930Z,48.63
2023-04-06T22:25:09.549Z,46.20
2023-04-06T22:27:36.211Z,45.50
2023-04-06T22:30:03.307Z,44.07
2023-04-06T22:32:29.817Z,43.30
2023-04-06T22:34:56.387Z,44.70
2023-04-06T22:37:22.993Z,43.17
2023-04-06T22:39:49.533Z,43.27
2023-04-06T22:42:16.031Z,46.80
2023-04-06T22:44:42.562Z,43.03
2023-04-06T22:47:09.123Z,42.20
2023-04-06T22:49:35.641Z,45.67
2023-04-06T22:52:02.163Z,44.80
2023-04-06T22:54:28.630Z,44.83
2023-04-06T22:56:55.204Z,41.53
2023-04-06T22:59:21.694Z,47.10
2023-04-06T23:01:48.306Z,42.27
2023-04-06T23:04:14.823Z,41.50
2023-04-06T23:06:41.391Z,43.37
2023-04-06T23:09:08.051Z,46.53
2023-04-06T23:11:34.529Z,41.10
2023-04-06T23:14:01.482Z,44.70
2023-04-06T23:16:28.035Z,43.40
2023-04-06T23:18:54.520Z,41.37
2023-04-06T23:21:21.282Z,42.73
2023-04-06T23:23:47.761Z,48.53
2023-04-06T23:26:14.299Z,48.90
2023-04-06T23:28:40.991Z,43.10
2023-04-06T23:31:07.570Z,44.87
2023-04-06T23:33:34.001Z,47.87
2023-04-06T23:36:00.541Z,41.77
2023-04-06T23:38:27.084Z,43.13
2023-04-06T23:40:53.562Z,40.37
2023-04-06T23:43:20.029Z,40.73
2023-04-06T23:45:46.844Z,39.13
2023-04-06T23:48:13.330Z,42.20
2023-04-06T23:50:41.036Z,40.20
2023-04-06T23:53:07.520Z,39.13
2023-04-06T23:55:34.350Z,38.60
2023-04-06T23:58:01.985Z,41.60
